首页
METAR-TAF:

METAR-TAF

机场 :

科利佐沃國際機場

葉卡捷琳堡, 俄罗斯

纬度: 56-50N, 经度: 060-38E, 海拔: 237米

当前天气观测

该预报发布于43分钟前的11:30 UTC
风速6节,风向北转西北,在西东北之间变化
温度 33°C
湿度 36%
气压 1016 hPa
能见度10公里或以上
1500米以下无云,无积雨云

METAR: USSS 091130Z 34003MPS 260V040 CAVOK 33/16 Q1016 R26R/010060 NOSIG RMK QFE741/0988

时间: 17:13 (12:13 UTC)

预报

该预报发布于1小时和16分钟前的10:57 UTC
预报有效从09日的 12点(UTC)到 10日的 12点(UTC)
风速6节,风向北转西北,有时为19节阵风
能见度10公里或以上
1500米以下无云,无积雨云
成为
从 09日的 18点(UTC)到 09日的 20点(UTC)
能見度: 3100
轻雾
成为
从 10日的 01点(UTC)到 10日的 03点(UTC)
能见度10公里或以上

TAF: USSS 091057Z 0912/1012 33003G10MPS CAVOK BECMG 0918/0920 3100 BR BECMG 1001/1003 9999 NSW

超过4000个机场的气象观测和天气预报(METAR&TAF报告)。

可查询的气象台以黄色和红色小点在地图上表示。

将鼠标移到小点上方,可查看气象台名称。

然后点击查看天气观测和预报。

如需切换地图:点击带黑十字的绿色按钮放大地图;点击带横线的绿色按钮缩小地图;或者点击绿色箭头查看邻近地区的地图。


METAR-TAF: